KHCO

Hallock Municipal Airport

Hallock, Minnesota, USA
METAR KHCO 172115Z AUTO 29015KT 10SM OVC050 M06/M14 A2989 RMK AO2
Observed Flight Rules
Feb-17 @ 21:15 UTC (19 minutes ago) Visual Flight Rules
Wind Visibility Clouds
290° at 15 knots 10 miles
  • Overcast at 5,000' AGL
Temperatures Readings
Current -6°C / 21°F
Dewpoint -14°C / 7°F
Humidity 54%
Altimeter 29.89" Hg
Pressure 1012 hPa
Elevation 250
METAR KHCO 172115Z AUTO 29015KT 10SM OVC050 M06/M14 A2989 RMK AO2
Observed Flight Rules
Feb-17 @ 21:15 UTC
(19 minutes ago)
VFR
Wind Visibility
290° at 15 knots 10 miles
Clouds
  • Overcast at 5,000' AGL
Temperature Dewpoint
-6°C / 21°F -14°C / 7°F
Humidity Altimeter Pressure
54% 29.89" Hg 1012 hPa